Time;durP1;ratioP1;P1;durP2;ratioP2;P2;SDS_P1;SDS_P2;PMS_P1;PMS_P2;Temp;Humidity;BMP_temperature;BMP_pressure;BME280_temperature;BME280_humidity;BME280_pressure;Samples;Min_cycle;Max_cycle;Signal;HPM_P1;HPM_P2
2024/03/25 00:01:03;;;;;;;12.00;7.80;;;;;;;6.00;78.65;100061.02;107541;1254;99178;-65
2024/03/25 00:03:39;;;;;;;11.10;7.80;;;;;;;6.03;78.82;100054.86;107540;1254;99684;-64
2024/03/25 00:06:07;;;;;;;10.90;8.40;;;;;;;6.12;79.10;100056.44;107549;1254;113556;-64
2024/03/25 00:08:36;;;;;;;10.50;8.00;;;;;;;6.21;79.27;100063.02;107488;1254;108538;-64
2024/03/25 00:11:04;;;;;;;11.40;8.30;;;;;;;6.28;79.07;100055.88;107519;1254;108345;-66
2024/03/25 00:13:32;;;;;;;11.10;8.20;;;;;;;6.32;78.97;100057.31;107579;1252;99195;-67
2024/03/25 00:16:00;;;;;;;14.70;7.80;;;;;;;6.36;78.87;100058.41;107573;1255;99922;-68
2024/03/25 00:18:28;;;;;;;11.60;7.50;;;;;;;6.40;78.73;100043.81;107591;1254;113405;-66
2024/03/25 00:20:57;;;;;;;13.40;8.30;;;;;;;6.45;78.77;100039.89;107609;1253;107899;-66
2024/03/25 00:23:25;;;;;;;9.90;7.60;;;;;;;6.46;78.54;100033.20;107577;1255;106595;-67
2024/03/25 00:25:53;;;;;;;15.60;8.50;;;;;;;6.47;78.30;100024.20;107502;1254;99092;-67
2024/03/25 00:28:21;;;;;;;11.20;8.20;;;;;;;6.50;78.50;100011.16;107504;1253;99064;-68
2024/03/25 00:30:50;;;;;;;11.00;7.40;;;;;;;6.52;78.54;99996.84;107569;1253;113098;-67
2024/03/25 00:33:18;;;;;;;10.90;8.30;;;;;;;6.53;78.25;99984.48;107520;1254;109066;-65
2024/03/25 00:35:46;;;;;;;12.60;8.80;;;;;;;6.55;78.30;99971.15;107502;1253;108236;-66
2024/03/25 00:38:14;;;;;;;13.20;9.00;;;;;;;6.55;78.02;99956.52;107489;1254;99077;-66
2024/03/25 00:40:42;;;;;;;14.70;9.20;;;;;;;6.55;77.90;99939.81;107585;1254;99080;-66
2024/03/25 00:43:11;;;;;;;9.10;7.30;;;;;;;6.52;78.09;99942.75;107515;1254;112841;-67
2024/03/25 00:45:39;;;;;;;13.60;8.80;;;;;;;6.51;78.11;99951.73;107547;1253;108624;-67
2024/03/25 00:48:07;;;;;;;10.30;8.00;;;;;;;6.51;78.37;99953.15;107537;1256;108173;-66
2024/03/25 00:50:36;;;;;;;10.10;7.60;;;;;;;6.54;78.59;99958.78;107530;1254;99196;-67
2024/03/25 00:53:04;;;;;;;14.20;8.50;;;;;;;6.56;78.51;99956.96;107557;1254;99185;-66
2024/03/25 00:55:32;;;;;;;20.10;10.40;;;;;;;6.55;78.23;99948.34;107522;1251;113618;-65
2024/03/25 00:58:00;;;;;;;17.30;9.00;;;;;;;6.56;78.30;99941.48;107593;1251;106760;-66
2024/03/25 01:00:28;;;;;;;14.20;7.80;;;;;;;6.58;78.29;99941.89;107601;1251;108602;-68
2024/03/25 01:02:56;;;;;;;11.30;8.00;;;;;;;6.56;78.20;99948.13;107570;1251;99169;-66
2024/03/25 01:05:25;;;;;;;12.70;6.90;;;;;;;6.54;78.02;99946.13;107601;1256;99783;-65
2024/03/25 01:07:53;;;;;;;9.60;7.90;;;;;;;6.53;78.04;99939.47;107592;1251;113089;-64
2024/03/25 01:10:21;;;;;;;13.80;8.20;;;;;;;6.53;78.09;99941.60;107627;1251;107520;-65
2024/03/25 01:12:49;;;;;;;12.40;8.30;;;;;;;6.53;78.04;99941.75;107617;1251;108444;-64
2024/03/25 01:15:17;;;;;;;10.40;7.40;;;;;;;6.49;78.14;99944.75;107604;1256;99175;-65
2024/03/25 01:17:45;;;;;;;11.10;7.30;;;;;;;6.45;78.22;99938.67;107609;1251;99175;-65
2024/03/25 01:20:13;;;;;;;12.20;7.30;;;;;;;6.41;78.33;99933.67;107575;1251;113366;-65
2024/03/25 01:22:43;;;;;;;11.00;8.30;;;;;;;6.38;78.03;99929.32;107665;1251;108887;-68
2024/03/25 01:25:11;;;;;;;14.00;7.90;;;;;;;6.34;78.08;99920.77;107550;1256;106805;-67
2024/03/25 01:27:39;;;;;;;10.90;8.20;;;;;;;6.29;77.96;99917.23;107582;1251;99185;-67
2024/03/25 01:30:07;;;;;;;9.80;7.50;;;;;;;6.25;78.11;99911.28;107606;1251;99170;-66
2024/03/25 01:32:36;;;;;;;13.40;7.70;;;;;;;6.20;78.32;99914.04;107560;1256;112401;-66
2024/03/25 01:35:04;;;;;;;9.80;7.10;;;;;;;6.17;78.33;99916.85;107592;1251;108337;-66
2024/03/25 01:37:32;;;;;;;10.60;7.60;;;;;;;6.11;78.25;99921.55;107625;1255;107145;-67
2024/03/25 01:40:00;;;;;;;9.80;7.20;;;;;;;6.10;78.25;99920.77;107583;1254;99188;-66
2024/03/25 01:42:28;;;;;;;13.20;7.50;;;;;;;6.09;78.39;99916.62;107569;1254;99268;-66
2024/03/25 01:44:56;;;;;;;11.70;7.70;;;;;;;6.06;78.33;99916.16;107581;1254;113012;-66
2024/03/25 01:47:25;;;;;;;11.20;7.20;;;;;;;6.05;78.30;99912.16;107560;1254;107110;-65
2024/03/25 01:49:56;;;;;;;12.40;8.20;;;;;;;6.02;78.17;99903.61;107583;1254;107702;-67
2024/03/25 01:52:25;;;;;;;13.00;7.40;;;;;;;5.99;78.11;99902.26;107515;1254;99204;-66
2024/03/25 01:54:54;;;;;;;11.00;6.60;;;;;;;5.98;78.16;99901.29;107516;1254;99193;-66
2024/03/25 01:57:22;;;;;;;12.50;7.10;;;;;;;5.98;78.21;99893.82;107591;1254;113049;-67
2024/03/25 01:59:51;;;;;;;14.30;7.60;;;;;;;5.95;78.25;99892.38;107573;1254;108501;-66
2024/03/25 02:02:19;;;;;;;9.30;6.90;;;;;;;5.94;78.21;99892.14;107497;1254;108393;-66
2024/03/25 02:04:47;;;;;;;11.20;7.40;;;;;;;5.91;78.23;99887.23;107573;1254;99202;-66
2024/03/25 02:07:16;;;;;;;9.50;6.70;;;;;;;5.89;78.25;99879.09;107523;1254;99775;-67
2024/03/25 02:09:45;;;;;;;9.90;6.90;;;;;;;5.86;78.18;99871.45;107559;1254;112876;-66
2024/03/25 02:12:14;;;;;;;10.40;7.80;;;;;;;5.84;78.35;99863.96;107486;1251;108545;-65
2024/03/25 02:14:43;;;;;;;10.20;6.70;;;;;;;5.80;78.14;99862.55;107575;1253;109323;-66
2024/03/25 02:17:11;;;;;;;10.10;7.00;;;;;;;5.74;78.16;99865.86;107598;1253;99195;-66
2024/03/25 02:19:41;;;;;;;9.70;6.70;;;;;;;5.70;78.09;99866.77;107669;1254;99129;-67
2024/03/25 02:22:09;;;;;;;12.00;7.30;;;;;;;5.62;78.02;99867.73;107591;1254;111498;-67
2024/03/25 02:24:39;;;;;;;10.10;7.20;;;;;;;5.58;78.01;99874.13;107577;1255;107208;-68
2024/03/25 02:27:10;;;;;;;13.60;7.70;;;;;;;5.54;77.92;99869.34;107532;1254;107716;-66
2024/03/25 02:29:38;;;;;;;10.50;7.20;;;;;;;5.51;78.15;99868.50;107553;1253;99262;-66
2024/03/25 02:32:11;;;;;;;10.60;7.30;;;;;;;5.51;78.43;99867.44;107517;1253;99189;-67
2024/03/25 02:34:42;;;;;;;10.80;7.30;;;;;;;5.51;78.45;99861.56;107611;1254;112420;-65
2024/03/25 02:37:11;;;;;;;8.90;6.50;;;;;;;5.52;78.72;99863.89;107583;1254;108384;-66
2024/03/25 02:39:39;;;;;;;11.90;7.60;;;;;;;5.53;78.42;99862.59;107562;1254;107109;-67
2024/03/25 02:42:07;;;;;;;10.40;7.20;;;;;;;5.53;78.50;99865.64;107541;1253;99172;-66
2024/03/25 02:44:36;;;;;;;8.40;6.40;;;;;;;5.50;78.35;99863.56;107526;1256;99292;-68
2024/03/25 02:47:05;;;;;;;10.30;7.50;;;;;;;5.48;78.56;99861.92;107541;1254;113751;-66
2024/03/25 02:49:34;;;;;;;10.60;8.00;;;;;;;5.47;78.18;99857.23;107525;1254;107036;-65
2024/03/25 02:52:02;;;;;;;12.30;7.70;;;;;;;5.45;78.58;99856.86;107597;1256;107494;-65
2024/03/25 02:54:30;;;;;;;12.10;7.70;;;;;;;5.46;78.59;99852.36;107532;1254;99166;-65
2024/03/25 02:56:59;;;;;;;8.80;6.70;;;;;;;5.45;78.48;99846.55;107626;1251;99185;-65
2024/03/25 02:59:27;;;;;;;8.60;6.50;;;;;;;5.45;78.49;99844.05;107583;1251;113597;-64
2024/03/25 03:01:55;;;;;;;11.20;7.20;;;;;;;5.47;78.65;99845.83;107601;1251;108370;-67
2024/03/25 03:04:23;;;;;;;10.80;7.70;;;;;;;5.48;78.44;99845.36;107585;1256;108459;-68
2024/03/25 03:06:52;;;;;;;12.90;7.50;;;;;;;5.49;78.63;99850.11;107553;1251;99204;-67
2024/03/25 03:09:20;;;;;;;11.30;7.00;;;;;;;5.51;78.59;99852.86;107578;1251;99184;-66
2024/03/25 03:11:48;;;;;;;10.90;8.00;;;;;;;5.52;78.55;99854.36;107561;1254;113056;-67
2024/03/25 03:14:17;;;;;;;10.40;7.20;;;;;;;5.52;78.60;99855.92;107572;1253;107972;-66
2024/03/25 03:16:45;;;;;;;9.10;7.20;;;;;;;5.54;78.89;99851.52;107548;1254;108091;-67
2024/03/25 03:19:13;;;;;;;10.80;7.70;;;;;;;5.55;78.68;99850.88;107575;1254;99175;-67
2024/03/25 03:21:41;;;;;;;9.50;7.20;;;;;;;5.58;78.79;99847.82;107540;1254;99180;-67
2024/03/25 03:24:09;;;;;;;9.60;7.50;;;;;;;5.58;78.84;99850.27;107546;1256;113176;-64
2024/03/25 03:26:37;;;;;;;12.40;7.90;;;;;;;5.58;78.80;99847.27;107607;1251;108295;-67
2024/03/25 03:29:06;;;;;;;15.90;7.40;;;;;;;5.56;78.68;99848.10;107554;1251;108705;-67
2024/03/25 03:31:34;;;;;;;10.90;7.00;;;;;;;5.57;78.84;99853.58;107530;1251;99060;-65
2024/03/25 03:34:02;;;;;;;10.60;7.30;;;;;;;5.59;78.96;99856.95;107591;1251;99723;-67
2024/03/25 03:36:30;;;;;;;12.30;7.10;;;;;;;5.59;78.95;99853.02;107632;1251;112333;-67
2024/03/25 03:38:58;;;;;;;12.00;7.30;;;;;;;5.58;78.85;99845.16;107543;1251;107878;-66
2024/03/25 03:41:27;;;;;;;11.30;8.00;;;;;;;5.57;78.83;99840.95;107586;1251;108567;-66
2024/03/25 03:43:55;;;;;;;10.40;7.90;;;;;;;5.55;79.00;99842.15;107547;1251;99237;-65
2024/03/25 03:46:23;;;;;;;13.00;7.80;;;;;;;5.53;78.87;99840.20;107643;1251;99791;-67
2024/03/25 03:48:51;;;;;;;17.00;9.00;;;;;;;5.50;78.88;99844.37;107551;1251;112569;-67
2024/03/25 03:51:19;;;;;;;11.90;7.60;;;;;;;5.46;78.70;99844.64;107567;1254;108480;-67
2024/03/25 03:53:48;;;;;;;12.70;8.00;;;;;;;5.46;78.80;99843.27;107493;1253;107292;-67
2024/03/25 03:56:16;;;;;;;12.30;8.30;;;;;;;5.44;78.98;99848.19;107453;1252;99191;-67
2024/03/25 03:58:45;;;;;;;11.10;7.90;;;;;;;5.45;79.14;99851.51;107558;1254;99759;-71
2024/03/25 04:01:18;;;;;;;13.30;8.20;;;;;;;5.46;79.20;99852.14;107508;1254;112692;-68
2024/03/25 04:03:47;;;;;;;11.80;8.00;;;;;;;5.49;79.20;99853.88;107550;1254;108951;-67
2024/03/25 04:06:15;;;;;;;13.80;8.10;;;;;;;5.52;79.30;99853.64;107593;1255;107813;-67
2024/03/25 04:08:44;;;;;;;16.60;8.10;;;;;;;5.51;79.19;99855.64;107496;1254;99176;-66
2024/03/25 04:11:12;;;;;;;11.90;8.10;;;;;;;5.49;79.10;99857.23;107557;1256;99814;-67
2024/03/25 04:13:40;;;;;;;12.60;8.10;;;;;;;5.48;79.20;99856.45;107559;1254;112769;-67
2024/03/25 04:16:09;;;;;;;18.70;11.20;;;;;;;5.49;79.27;99860.31;107557;1254;108333;-67
2024/03/25 04:18:37;;;;;;;23.00;14.10;;;;;;;5.52;79.74;99861.09;107514;1254;108306;-67
2024/03/25 04:21:11;;;;;;;22.70;15.70;;;;;;;5.58;79.76;99862.92;107480;1254;99060;-67
2024/03/25 04:23:40;;;;;;;;;;;;;;;5.64;79.60;99855.45;107536;1254;99281;-67
2024/03/25 04:26:09;;;;;;;15.90;8.90;;;;;;;5.63;79.24;99857.68;107526;1254;113436;-66
2024/03/25 04:28:38;;;;;;;15.20;9.40;;;;;;;5.62;79.24;99860.95;107519;1253;108289;-67
2024/03/25 04:31:08;;;;;;;16.20;9.90;;;;;;;5.60;79.17;99860.95;107475;1254;107548;-67
2024/03/25 04:33:36;;;;;;;13.50;9.70;;;;;;;5.61;79.11;99859.63;107480;1254;99183;-66
2024/03/25 04:36:05;;;;;;;13.00;9.30;;;;;;;5.63;79.32;99861.98;107524;1254;99704;-67
2024/03/25 04:38:33;;;;;;;14.80;9.40;;;;;;;5.65;79.39;99864.27;107501;1252;112658;-67
2024/03/25 04:41:01;;;;;;;13.50;9.10;;;;;;;5.66;79.33;99866.02;107574;1254;107602;-67
2024/03/25 04:43:29;;;;;;;14.70;9.60;;;;;;;5.67;79.14;99865.04;107521;1254;107657;-67
2024/03/25 04:46:00;;;;;;;12.10;8.60;;;;;;;5.69;79.27;99862.92;107569;1255;99064;-66
2024/03/25 04:48:28;;;;;;;14.70;8.60;;;;;;;5.70;79.26;99867.96;107634;1254;99172;-66
2024/03/25 04:50:57;;;;;;;16.60;9.10;;;;;;;5.68;78.99;99869.61;107603;1253;113745;-66
2024/03/25 04:53:26;;;;;;;11.00;7.90;;;;;;;5.67;78.96;99865.58;107545;1254;107905;-66
2024/03/25 04:55:54;;;;;;;13.10;8.70;;;;;;;5.68;78.97;99872.25;107493;1256;107540;-65
2024/03/25 04:58:23;;;;;;;13.80;9.50;;;;;;;5.68;78.91;99875.65;107480;1254;99186;-66
2024/03/25 05:00:52;;;;;;;15.30;10.00;;;;;;;5.66;78.82;99882.17;107478;1253;99320;-66
2024/03/25 05:03:20;;;;;;;15.80;10.40;;;;;;;5.65;78.77;99888.84;107573;1256;112965;-68
2024/03/25 05:05:48;;;;;;;15.50;10.10;;;;;;;5.63;78.83;99892.39;107600;1256;107771;-65
2024/03/25 05:08:16;;;;;;;14.80;9.90;;;;;;;5.63;79.03;99894.48;107546;1256;108483;-66
2024/03/25 05:10:45;;;;;;;14.70;9.70;;;;;;;5.62;78.87;99899.36;107540;1256;99186;-67
2024/03/25 05:13:13;;;;;;;14.50;10.20;;;;;;;5.62;78.93;99902.59;107518;1254;99280;-65
2024/03/25 05:15:52;;;;;;;13.20;9.80;;;;;;;5.62;79.04;99907.05;107486;1254;113183;-66
2024/03/25 05:18:20;;;;;;;17.70;9.70;;;;;;;5.62;79.11;99907.75;107506;1254;108341;-67
2024/03/25 05:20:49;;;;;;;17.20;9.80;;;;;;;5.63;79.14;99910.90;107510;1254;108061;-66
2024/03/25 05:23:16;;;;;;;13.90;9.60;;;;;;;5.64;79.05;99913.98;107474;1254;99062;-65
2024/03/25 05:25:45;;;;;;;14.30;9.50;;;;;;;5.64;79.05;99915.09;107568;1254;99298;-66
2024/03/25 05:28:13;;;;;;;12.60;9.00;;;;;;;5.64;79.17;99916.89;107592;1254;112370;-67
2024/03/25 05:30:41;;;;;;;15.70;9.60;;;;;;;5.63;78.95;99919.42;107649;1255;108190;-66
2024/03/25 05:33:10;;;;;;;11.60;9.20;;;;;;;5.62;78.83;99918.77;107534;1254;108291;-65
2024/03/25 05:35:38;;;;;;;17.40;10.00;;;;;;;5.65;78.94;99922.14;107581;1254;99182;-63
2024/03/25 05:38:07;;;;;;;21.80;9.70;;;;;;;5.68;79.21;99918.67;107506;1254;99183;-65
2024/03/25 05:40:35;;;;;;;13.40;9.30;;;;;;;5.71;78.94;99913.45;107565;1254;112598;-66
2024/03/25 05:43:04;;;;;;;15.40;10.80;;;;;;;5.75;79.04;99912.06;107545;1254;108339;-65
2024/03/25 05:45:32;;;;;;;19.00;10.80;;;;;;;5.79;78.95;99912.23;107511;1256;107570;-65
2024/03/25 05:48:01;;;;;;;13.50;10.50;;;;;;;5.85;78.99;99915.48;107554;1253;99164;-66
2024/03/25 05:50:29;;;;;;;16.50;9.60;;;;;;;5.91;78.99;99913.43;107523;1256;99250;-69
2024/03/25 05:52:57;;;;;;;14.30;9.10;;;;;;;5.96;79.00;99916.90;107549;1255;113226;-67
2024/03/25 05:55:26;;;;;;;12.10;8.70;;;;;;;5.98;78.73;99909.80;107595;1254;108611;-64
2024/03/25 05:57:54;;;;;;;13.00;8.80;;;;;;;6.01;78.81;99904.42;107515;1255;108273;-64
2024/03/25 06:00:24;;;;;;;15.30;9.40;;;;;;;6.04;78.69;99902.08;107456;1256;99191;-66
2024/03/25 06:02:53;;;;;;;13.30;9.60;;;;;;;6.08;78.68;99905.31;107505;1255;99146;-64
2024/03/25 06:05:22;;;;;;;15.10;10.00;;;;;;;6.10;78.57;99902.96;107469;1251;114927;-65
2024/03/25 06:07:50;;;;;;;15.10;9.70;;;;;;;6.13;78.66;99904.65;107401;1257;108300;-69
2024/03/25 06:10:18;;;;;;;16.10;9.80;;;;;;;6.16;78.54;99903.71;107456;1256;108553;-66
2024/03/25 06:12:46;;;;;;;16.00;10.00;;;;;;;6.20;78.52;99911.79;107481;1255;99187;-66
2024/03/25 06:15:14;;;;;;;14.50;9.30;;;;;;;6.24;78.42;99914.58;107468;1253;99706;-65
2024/03/25 06:17:43;;;;;;;15.30;10.10;;;;;;;6.30;78.46;99914.48;107480;1256;113082;-66
2024/03/25 06:20:11;;;;;;;13.20;8.80;;;;;;;6.34;78.28;99918.09;107457;1256;107540;-66
2024/03/25 06:22:39;;;;;;;15.80;9.20;;;;;;;6.37;78.17;99914.45;107494;1252;107766;-64
2024/03/25 06:25:08;;;;;;;16.80;9.40;;;;;;;6.39;77.96;99912.97;107417;1251;99329;-65
2024/03/25 06:27:36;;;;;;;15.50;9.60;;;;;;;6.42;77.87;99911.34;107573;1256;99720;-65
2024/03/25 06:35:39;;;;;;;13.30;9.30;;;;;;;6.42;77.53;99904.23;107416;1251;108291;-65
2024/03/25 06:38:07;;;;;;;12.20;8.40;;;;;;;6.45;77.27;99909.81;107410;1251;99274;-66
2024/03/25 06:40:36;;;;;;;14.10;8.50;;;;;;;6.42;76.91;99907.25;107472;1251;99482;-66
2024/03/25 06:43:04;;;;;;;14.40;9.50;;;;;;;6.38;76.92;99910.96;107407;1251;113376;-66
2024/03/25 06:45:33;;;;;;;15.10;8.60;;;;;;;6.38;76.85;99916.16;107447;1251;107997;-64
2024/03/25 06:48:00;;;;;;;15.00;8.40;;;;;;;6.37;76.84;99916.07;107421;1253;107166;-67
2024/03/25 06:50:29;;;;;;;13.60;9.10;;;;;;;6.40;76.89;99922.39;107404;1256;99284;-67
2024/03/25 06:52:56;;;;;;;13.90;8.50;;;;;;;6.44;76.89;99922.39;107385;1251;99889;-67
2024/03/25 06:55:27;;;;;;;11.70;7.90;;;;;;;6.42;76.50;99916.16;107540;1251;113176;-66
2024/03/25 06:57:56;;;;;;;12.40;8.20;;;;;;;6.44;76.49;99920.30;107443;1251;107883;-65
2024/03/25 07:00:24;;;;;;;12.30;7.80;;;;;;;6.45;76.65;99919.48;107424;1251;108150;-67
2024/03/25 07:02:52;;;;;;;10.30;6.80;;;;;;;6.42;76.24;99922.53;107403;1251;99210;-65
2024/03/25 07:05:20;;;;;;;11.90;7.80;;;;;;;6.41;76.28;99925.29;107398;1251;99071;-65
2024/03/25 07:07:51;;;;;;;11.40;8.10;;;;;;;6.41;76.37;99930.43;107468;1254;113327;-65
2024/03/25 07:10:20;;;;;;;10.80;7.40;;;;;;;6.43;76.39;99934.76;107466;1256;106950;-65
2024/03/25 07:12:48;;;;;;;11.80;7.60;;;;;;;6.45;76.31;99935.15;107420;1254;108330;-65
2024/03/25 07:15:16;;;;;;;14.20;8.20;;;;;;;6.47;76.31;99934.08;107416;1251;99173;-66
2024/03/25 07:17:44;;;;;;;14.20;7.80;;;;;;;6.45;75.91;99933.55;107440;1255;99258;-66
2024/03/25 07:20:13;;;;;;;12.20;7.80;;;;;;;6.41;76.08;99932.95;107412;1251;112759;-66
2024/03/25 07:22:41;;;;;;;11.20;6.80;;;;;;;6.40;75.86;99930.20;107453;1251;108328;-66
2024/03/25 07:25:09;;;;;;;10.20;7.10;;;;;;;6.38;75.84;99932.11;107395;1256;107170;-65
2024/03/25 07:27:37;;;;;;;11.50;7.40;;;;;;;6.37;75.82;99930.67;107399;1254;99184;-66
2024/03/25 07:30:07;;;;;;;11.10;7.60;;;;;;;6.36;75.82;99934.08;107427;1251;99053;-65
2024/03/25 07:32:35;;;;;;;16.60;8.20;;;;;;;6.36;75.92;99932.13;107432;1251;112666;-66
2024/03/25 07:35:04;;;;;;;10.40;7.50;;;;;;;6.39;76.11;99931.87;107368;1254;108570;-65
2024/03/25 07:37:32;;;;;;;12.20;7.30;;;;;;;6.38;76.06;99930.52;107438;1254;107555;-66
2024/03/25 07:40:01;;;;;;;11.30;7.90;;;;;;;6.44;76.27;99934.02;107407;1251;99170;-66
2024/03/25 07:42:30;;;;;;;16.80;8.90;;;;;;;6.47;76.28;99934.63;107435;1251;99723;-67
2024/03/25 07:44:58;;;;;;;13.80;8.50;;;;;;;6.53;76.35;99928.60;107538;1251;112811;-67
2024/03/25 07:47:26;;;;;;;14.40;8.40;;;;;;;6.60;76.32;99922.80;107351;1253;108031;-66
2024/03/25 07:49:54;;;;;;;13.50;7.70;;;;;;;6.67;76.22;99920.22;107430;1257;107683;-66
2024/03/25 07:52:22;;;;;;;17.50;8.60;;;;;;;6.72;75.90;99917.52;107352;1253;99170;-66
2024/03/25 07:54:51;;;;;;;14.00;7.20;;;;;;;6.80;75.89;99916.16;107522;1255;99092;-66
2024/03/25 07:57:19;;;;;;;14.00;7.30;;;;;;;6.90;75.73;99909.91;106739;1255;1051090;-66
2024/03/25 07:59:48;;;;;;;10.30;6.80;;;;;;;7.03;75.48;99902.02;107562;1254;107854;-66
2024/03/25 08:02:16;;;;;;;10.90;7.60;;;;;;;7.16;75.13;99901.79;107488;1254;107480;-66
2024/03/25 08:04:45;;;;;;;10.10;6.20;;;;;;;7.27;74.60;99898.55;107509;1254;99185;-66
2024/03/25 08:07:13;;;;;;;10.20;6.50;;;;;;;7.36;74.41;99901.23;107491;1257;99736;-66
2024/03/25 08:09:41;;;;;;;7.80;5.20;;;;;;;7.48;73.64;99893.76;107537;1257;113124;-69
2024/03/25 08:12:09;;;;;;;11.20;6.10;;;;;;;7.54;72.74;99894.84;107473;1255;108655;-68
2024/03/25 08:14:37;;;;;;;10.30;6.60;;;;;;;7.60;72.46;99892.68;107472;1254;107528;-67
2024/03/25 08:17:05;;;;;;;12.70;6.40;;;;;;;7.70;71.81;99889.14;107456;1254;99183;-67
2024/03/25 08:19:33;;;;;;;8.30;6.00;;;;;;;7.75;71.43;99892.08;107460;1253;99185;-67
2024/03/25 08:22:02;;;;;;;8.30;5.80;;;;;;;7.77;71.58;99893.98;107478;1254;112622;-69
2024/03/25 08:24:30;;;;;;;7.90;5.40;;;;;;;7.85;71.59;99893.52;107506;1254;107575;-67
2024/03/25 08:26:58;;;;;;;8.80;4.90;;;;;;;7.94;71.51;99895.54;107558;1255;108282;-68
2024/03/25 08:29:26;;;;;;;11.80;4.90;;;;;;;8.04;71.02;99895.67;107516;1254;99169;-67
2024/03/25 08:31:54;;;;;;;8.00;5.40;;;;;;;8.15;70.37;99895.38;107579;1254;99056;-66
2024/03/25 08:34:22;;;;;;;11.10;5.60;;;;;;;8.22;69.81;99899.92;107518;1254;112656;-66
2024/03/25 08:36:50;;;;;;;8.20;5.20;;;;;;;8.27;68.77;99899.63;107582;1254;108365;-65
2024/03/25 08:39:18;;;;;;;11.90;5.40;;;;;;;8.29;68.71;99904.16;107541;1253;107435;-65
2024/03/25 08:41:46;;;;;;;6.30;4.80;;;;;;;8.34;68.94;99905.40;107509;1251;99189;-65
2024/03/25 08:44:14;;;;;;;10.80;5.90;;;;;;;8.48;69.14;99905.27;107637;1254;99707;-67
2024/03/25 08:46:44;;;;;;;9.80;4.60;;;;;;;8.63;69.34;99906.58;107580;1251;113080;-68
2024/03/25 08:49:12;;;;;;;13.10;4.90;;;;;;;8.79;68.87;99910.64;107584;1254;108435;-68
2024/03/25 08:51:40;;;;;;;9.90;5.40;;;;;;;8.87;67.34;99911.61;107478;1252;109430;-68
2024/03/25 08:54:08;;;;;;;9.30;5.20;;;;;;;8.93;67.65;99918.05;107496;1257;99268;-68
2024/03/25 08:56:37;;;;;;;11.60;4.60;;;;;;;9.04;67.71;99915.86;107494;1254;99178;-70
2024/03/25 08:59:05;;;;;;;9.00;4.50;;;;;;;9.15;67.08;99918.29;107514;1254;113098;-69
2024/03/25 09:01:33;;;;;;;7.30;4.40;;;;;;;9.21;64.69;99918.59;107478;1254;107399;-69
2024/03/25 09:04:03;;;;;;;12.60;4.40;;;;;;;9.21;63.73;99922.11;107479;1254;108153;-65
2024/03/25 09:06:33;;;;;;;11.90;4.30;;;;;;;9.22;63.94;99925.41;107536;1251;99076;-66
2024/03/25 09:11:47;;;;;;;10.80;5.30;;;;;;;9.40;64.26;99922.14;107457;1254;112894;-65
2024/03/25 09:14:15;;;;;;;12.50;4.80;;;;;;;9.41;63.88;99927.39;107526;1254;108021;-64
2024/03/25 09:16:44;;;;;;;12.10;5.20;;;;;;;9.42;62.84;99927.86;107542;1251;108198;-64
2024/03/25 09:19:11;;;;;;;7.90;4.40;;;;;;;9.41;63.02;99933.30;107520;1254;99106;-66
2024/03/25 09:21:40;;;;;;;7.60;4.90;;;;;;;9.43;63.60;99934.53;107518;1254;99137;-67
2024/03/25 09:24:08;;;;;;;10.00;4.90;;;;;;;9.48;63.98;99934.62;107613;1254;113437;-69
2024/03/25 09:26:36;;;;;;;10.10;4.80;;;;;;;9.59;63.70;99933.37;107563;1251;108629;-66
2024/03/25 09:29:04;;;;;;;13.90;4.60;;;;;;;9.70;63.61;99936.91;107480;1252;108245;-69
2024/03/25 09:31:32;;;;;;;8.60;4.90;;;;;;;9.88;62.73;99939.14;107522;1251;99246;-70
2024/03/25 09:34:01;;;;;;;7.00;4.50;;;;;;;9.98;62.82;99943.68;107566;1256;99280;-68
2024/03/25 09:36:29;;;;;;;6.80;4.30;;;;;;;10.11;62.31;99945.45;107545;1254;113085;-67
2024/03/25 09:38:57;;;;;;;10.90;5.20;;;;;;;10.21;61.70;99943.06;107631;1253;107164;-67
2024/03/25 09:41:28;;;;;;;7.40;4.10;;;;;;;10.29;61.54;99940.07;107613;1254;108540;-67
2024/03/25 09:43:59;;;;;;;7.60;3.80;;;;;;;10.39;60.37;99938.55;107582;1253;99189;-66
2024/03/25 09:46:28;;;;;;;8.80;4.00;;;;;;;10.45;59.38;99934.50;107651;1255;99339;-66
2024/03/25 09:48:56;;;;;;;20.10;4.30;;;;;;;10.51;59.11;99934.60;107663;1254;113073;-65
2024/03/25 09:51:24;;;;;;;7.30;4.50;;;;;;;10.74;58.96;99926.80;107621;1254;107270;-66
2024/03/25 09:53:53;;;;;;;11.50;4.00;;;;;;;10.93;59.42;99926.11;107594;1255;108026;-66
2024/03/25 09:56:21;;;;;;;10.60;4.40;;;;;;;11.26;58.25;99925.67;107694;1253;99194;-66
2024/03/25 09:58:51;;;;;;;8.00;3.70;;;;;;;11.63;56.83;99923.44;107605;1256;99329;-66
2024/03/25 10:01:19;;;;;;;12.00;4.10;;;;;;;12.01;56.19;99918.34;107627;1254;113360;-70
2024/03/25 10:03:47;;;;;;;10.90;3.20;;;;;;;12.61;55.14;99914.10;107672;1254;108667;-70
2024/03/25 10:06:15;;;;;;;7.50;3.20;;;;;;;13.13;50.99;99904.98;107487;1251;106936;-70
2024/03/25 10:08:45;;;;;;;7.00;3.70;;;;;;;13.27;50.74;99907.16;107552;1254;99257;-68
2024/03/25 10:11:15;;;;;;;6.60;4.10;;;;;;;13.32;50.44;99901.70;107542;1251;99058;-68
2024/03/25 10:13:43;;;;;;;4.60;2.20;;;;;;;13.39;49.58;99898.61;107463;1251;112732;-68
2024/03/25 10:16:13;;;;;;;9.50;2.50;;;;;;;13.46;49.21;99897.98;107500;1251;108739;-68
2024/03/25 10:18:42;;;;;;;19.20;3.20;;;;;;;13.47;48.14;99894.14;107421;1251;107720;-69
2024/03/25 10:21:10;;;;;;;6.30;2.30;;;;;;;13.40;48.46;99891.66;107596;1253;99742;-68
2024/03/25 10:23:42;;;;;;;6.90;2.70;;;;;;;13.31;47.52;99889.95;107436;1257;99684;-68
2024/03/25 10:26:10;;;;;;;8.30;2.70;;;;;;;13.24;48.05;99884.98;107656;1253;112531;-66
2024/03/25 10:28:38;;;;;;;4.00;2.10;;;;;;;13.15;47.09;99887.45;107596;1254;108633;-67
2024/03/25 10:31:08;;;;;;;5.00;1.70;;;;;;;12.97;46.65;99886.00;107613;1254;107846;-66
2024/03/25 10:33:36;;;;;;;5.90;2.40;;;;;;;12.96;46.35;99883.94;107593;1252;99203;-66
2024/03/25 10:36:06;;;;;;;13.90;1.50;;;;;;;13.05;46.88;99880.04;107570;1254;99253;-67
2024/03/25 10:38:35;;;;;;;3.40;1.10;;;;;;;13.19;46.14;99872.05;107620;1254;112689;-66
2024/03/25 10:41:03;;;;;;;7.50;1.40;;;;;;;13.28;46.08;99872.41;107618;1254;106581;-66
2024/03/25 10:43:33;;;;;;;10.90;1.40;;;;;;;13.50;43.44;99866.02;107577;1253;107046;-67
2024/03/25 10:46:03;;;;;;;7.50;1.40;;;;;;;13.53;43.42;99867.31;107594;1254;99214;-68
2024/03/25 10:48:37;;;;;;;6.50;1.30;;;;;;;13.53;43.22;99857.92;107596;1254;99263;-66
2024/03/25 10:51:09;;;;;;;20.50;2.30;;;;;;;13.45;43.45;99857.02;107581;1254;112373;-66
2024/03/25 10:53:38;;;;;;;6.30;2.00;;;;;;;13.45;43.75;99858.45;107535;1251;108398;-67
2024/03/25 10:56:07;;;;;;;5.50;1.30;;;;;;;13.60;43.80;99860.85;107554;1254;107239;-67
2024/03/25 10:58:36;;;;;;;5.50;1.40;;;;;;;13.61;44.37;99861.89;107545;1251;99178;-67
2024/03/25 11:01:05;;;;;;;4.10;1.50;;;;;;;13.65;43.96;99856.69;107508;1251;99058;-67
2024/03/25 11:03:35;;;;;;;9.30;1.40;;;;;;;13.72;42.82;99858.27;107523;1251;112583;-67
2024/03/25 11:06:04;;;;;;;3.40;1.40;;;;;;;13.64;42.33;99852.15;107490;1251;108424;-66
2024/03/25 11:08:32;;;;;;;9.20;1.20;;;;;;;13.48;41.14;99853.86;107637;1251;107697;-68
2024/03/25 11:11:00;;;;;;;10.10;1.30;;;;;;;13.18;41.59;99854.13;107491;1251;99261;-67
2024/03/25 11:13:29;;;;;;;3.10;1.30;;;;;;;12.94;41.83;99849.63;107469;1251;99183;-66
2024/03/25 11:15:59;;;;;;;4.60;1.30;;;;;;;12.82;41.58;99846.70;107527;1254;112114;-66
2024/03/25 11:18:29;;;;;;;12.40;1.40;;;;;;;12.73;42.79;99839.38;107669;1255;108602;-66
2024/03/25 11:21:03;;;;;;;6.20;1.30;;;;;;;12.84;43.26;99835.15;107628;1255;108593;-67
2024/03/25 11:23:47;;;;;;;3.20;0.90;;;;;;;13.03;43.42;99831.04;107621;1254;99070;-66
2024/03/25 11:26:24;;;;;;;3.90;1.40;;;;;;;13.22;43.51;99828.27;107631;1254;99224;-65
2024/03/25 11:28:53;;;;;;;5.60;1.50;;;;;;;13.38;42.53;99823.95;107658;1251;112821;-65
2024/03/25 11:31:25;;;;;;;11.90;1.60;;;;;;;13.42;42.35;99826.55;107442;1251;108587;-64
2024/03/25 11:33:57;;;;;;;10.50;1.60;;;;;;;13.37;42.29;99824.12;107523;1251;106010;-65